sensor_id;sensor_type;location;lat;lon;timestamp;P1;durP1;ratioP1;P2;durP2;ratioP2
19087;SDS011;9676;50.916;13.352;2023-05-10T00:01:34;11.30;;;10.30;;
19087;SDS011;9676;50.916;13.352;2023-05-10T00:04:23;10.77;;;9.77;;
19087;SDS011;9676;50.916;13.352;2023-05-10T00:07:14;11.23;;;10.23;;
19087;SDS011;9676;50.916;13.352;2023-05-10T00:10:04;10.67;;;9.70;;
19087;SDS011;9676;50.916;13.352;2023-05-10T00:12:55;10.90;;;9.90;;
19087;SDS011;9676;50.916;13.352;2023-05-10T00:15:45;11.00;;;9.97;;
19087;SDS011;9676;50.916;13.352;2023-05-10T00:18:35;10.80;;;9.80;;
19087;SDS011;9676;50.916;13.352;2023-05-10T00:21:24;11.47;;;10.37;;
19087;SDS011;9676;50.916;13.352;2023-05-10T00:24:15;11.20;;;10.10;;
19087;SDS011;9676;50.916;13.352;2023-05-10T00:27:04;11.43;;;10.33;;
19087;SDS011;9676;50.916;13.352;2023-05-10T00:29:54;11.00;;;10.00;;
19087;SDS011;9676;50.916;13.352;2023-05-10T00:32:45;11.13;;;10.13;;
19087;SDS011;9676;50.916;13.352;2023-05-10T00:35:35;11.00;;;10.00;;
19087;SDS011;9676;50.916;13.352;2023-05-10T00:38:25;10.93;;;9.93;;
19087;SDS011;9676;50.916;13.352;2023-05-10T00:41:14;11.00;;;9.90;;
19087;SDS011;9676;50.916;13.352;2023-05-10T00:44:06;11.20;;;10.10;;
19087;SDS011;9676;50.916;13.352;2023-05-10T00:46:55;10.80;;;9.90;;
19087;SDS011;9676;50.916;13.352;2023-05-10T00:49:46;11.23;;;10.20;;
19087;SDS011;9676;50.916;13.352;2023-05-10T00:52:36;10.60;;;9.70;;
19087;SDS011;9676;50.916;13.352;2023-05-10T00:55:25;11.13;;;10.13;;
19087;SDS011;9676;50.916;13.352;2023-05-10T00:58:15;11.10;;;10.10;;
19087;SDS011;9676;50.916;13.352;2023-05-10T01:01:04;11.43;;;10.33;;
19087;SDS011;9676;50.916;13.352;2023-05-10T01:03:54;11.40;;;10.33;;
19087;SDS011;9676;50.916;13.352;2023-05-10T01:06:45;11.97;;;10.87;;
19087;SDS011;9676;50.916;13.352;2023-05-10T01:09:35;11.70;;;10.60;;
19087;SDS011;9676;50.916;13.352;2023-05-10T01:12:24;11.30;;;10.20;;
19087;SDS011;9676;50.916;13.352;2023-05-10T01:15:14;11.37;;;10.27;;
19087;SDS011;9676;50.916;13.352;2023-05-10T01:18:05;11.00;;;10.00;;
19087;SDS011;9676;50.916;13.352;2023-05-10T01:20:57;12.20;;;10.67;;
19087;SDS011;9676;50.916;13.352;2023-05-10T01:31:29;13.97;;;10.40;;
19087;SDS011;9676;50.916;13.352;2023-05-10T01:34:42;11.20;;;10.10;;
19087;SDS011;9676;50.916;13.352;2023-05-10T01:37:40;10.93;;;9.83;;
19087;SDS011;9676;50.916;13.352;2023-05-10T01:40:37;10.90;;;9.90;;
19087;SDS011;9676;50.916;13.352;2023-05-10T01:43:36;10.73;;;9.73;;
19087;SDS011;9676;50.916;13.352;2023-05-10T01:46:35;10.90;;;9.90;;
19087;SDS011;9676;50.916;13.352;2023-05-10T01:49:29;10.93;;;9.93;;
19087;SDS011;9676;50.916;13.352;2023-05-10T01:52:25;10.97;;;9.97;;
19087;SDS011;9676;50.916;13.352;2023-05-10T01:55:20;11.07;;;10.10;;
19087;SDS011;9676;50.916;13.352;2023-05-10T01:58:14;10.50;;;9.60;;
19087;SDS011;9676;50.916;13.352;2023-05-10T02:01:08;10.90;;;9.90;;
19087;SDS011;9676;50.916;13.352;2023-05-10T02:03:59;11.40;;;10.40;;
19087;SDS011;9676;50.916;13.352;2023-05-10T02:06:52;11.00;;;10.00;;
19087;SDS011;9676;50.916;13.352;2023-05-10T02:09:43;11.03;;;10.03;;
19087;SDS011;9676;50.916;13.352;2023-05-10T02:12:35;10.50;;;9.60;;
19087;SDS011;9676;50.916;13.352;2023-05-10T02:15:27;11.60;;;10.50;;
19087;SDS011;9676;50.916;13.352;2023-05-10T02:18:18;10.93;;;9.83;;
19087;SDS011;9676;50.916;13.352;2023-05-10T02:21:08;10.90;;;9.90;;
19087;SDS011;9676;50.916;13.352;2023-05-10T02:24:00;11.10;;;10.10;;
19087;SDS011;9676;50.916;13.352;2023-05-10T02:26:52;11.40;;;10.40;;
19087;SDS011;9676;50.916;13.352;2023-05-10T02:29:43;11.00;;;10.00;;
19087;SDS011;9676;50.916;13.352;2023-05-10T02:32:35;10.87;;;9.87;;
19087;SDS011;9676;50.916;13.352;2023-05-10T02:35:26;11.20;;;10.20;;
19087;SDS011;9676;50.916;13.352;2023-05-10T02:38:16;10.93;;;9.93;;
19087;SDS011;9676;50.916;13.352;2023-05-10T02:41:11;11.00;;;10.00;;
19087;SDS011;9676;50.916;13.352;2023-05-10T02:44:01;11.30;;;10.30;;
19087;SDS011;9676;50.916;13.352;2023-05-10T02:46:52;11.50;;;10.40;;
19087;SDS011;9676;50.916;13.352;2023-05-10T02:49:43;11.10;;;10.00;;
19087;SDS011;9676;50.916;13.352;2023-05-10T02:52:36;11.27;;;10.20;;
19087;SDS011;9676;50.916;13.352;2023-05-10T02:55:32;11.13;;;10.13;;
19087;SDS011;9676;50.916;13.352;2023-05-10T02:58:26;11.20;;;10.20;;
19087;SDS011;9676;50.916;13.352;2023-05-10T03:01:16;10.80;;;9.90;;
19087;SDS011;9676;50.916;13.352;2023-05-10T03:04:05;13.20;;;10.10;;
19087;SDS011;9676;50.916;13.352;2023-05-10T03:06:55;11.50;;;10.40;;
19087;SDS011;9676;50.916;13.352;2023-05-10T03:09:44;11.23;;;10.23;;
19087;SDS011;9676;50.916;13.352;2023-05-10T03:12:39;11.10;;;10.10;;
19087;SDS011;9676;50.916;13.352;2023-05-10T03:15:46;11.47;;;10.37;;
19087;SDS011;9676;50.916;13.352;2023-05-10T03:18:44;10.60;;;9.70;;
19087;SDS011;9676;50.916;13.352;2023-05-10T03:21:40;10.80;;;9.90;;
19087;SDS011;9676;50.916;13.352;2023-05-10T03:24:33;10.90;;;9.90;;
19087;SDS011;9676;50.916;13.352;2023-05-10T03:27:24;12.10;;;10.40;;
19087;SDS011;9676;50.916;13.352;2023-05-10T03:30:16;10.40;;;9.50;;
19087;SDS011;9676;50.916;13.352;2023-05-10T03:33:07;11.00;;;9.90;;
19087;SDS011;9676;50.916;13.352;2023-05-10T03:36:00;10.70;;;9.80;;
19087;SDS011;9676;50.916;13.352;2023-05-10T03:38:50;11.03;;;10.03;;
19087;SDS011;9676;50.916;13.352;2023-05-10T03:41:39;10.80;;;9.80;;
19087;SDS011;9676;50.916;13.352;2023-05-10T03:44:28;13.50;;;9.87;;
19087;SDS011;9676;50.916;13.352;2023-05-10T03:47:18;10.67;;;9.77;;
19087;SDS011;9676;50.916;13.352;2023-05-10T03:50:09;10.80;;;9.83;;
19087;SDS011;9676;50.916;13.352;2023-05-10T03:52:58;10.90;;;9.90;;
19087;SDS011;9676;50.916;13.352;2023-05-10T03:55:48;10.80;;;9.80;;
19087;SDS011;9676;50.916;13.352;2023-05-10T03:58:38;10.60;;;9.60;;
19087;SDS011;9676;50.916;13.352;2023-05-10T04:01:27;10.90;;;9.80;;
19087;SDS011;9676;50.916;13.352;2023-05-10T04:04:16;10.93;;;9.93;;
19087;SDS011;9676;50.916;13.352;2023-05-10T04:07:10;10.73;;;9.83;;
19087;SDS011;9676;50.916;13.352;2023-05-10T04:10:00;10.40;;;9.50;;
19087;SDS011;9676;50.916;13.352;2023-05-10T04:12:49;10.60;;;9.70;;
19087;SDS011;9676;50.916;13.352;2023-05-10T04:15:39;10.70;;;9.77;;
19087;SDS011;9676;50.916;13.352;2023-05-10T04:18:28;10.83;;;9.80;;
19087;SDS011;9676;50.916;13.352;2023-05-10T04:21:18;10.50;;;9.60;;
19087;SDS011;9676;50.916;13.352;2023-05-10T04:24:08;10.57;;;9.57;;
19087;SDS011;9676;50.916;13.352;2023-05-10T04:26:59;10.93;;;9.87;;
19087;SDS011;9676;50.916;13.352;2023-05-10T04:29:49;10.43;;;9.43;;
19087;SDS011;9676;50.916;13.352;2023-05-10T04:32:38;10.30;;;9.40;;
19087;SDS011;9676;50.916;13.352;2023-05-10T04:35:27;10.60;;;9.70;;
19087;SDS011;9676;50.916;13.352;2023-05-10T04:38:17;10.30;;;9.40;;
19087;SDS011;9676;50.916;13.352;2023-05-10T04:41:08;10.70;;;9.80;;
19087;SDS011;9676;50.916;13.352;2023-05-10T04:43:58;10.80;;;9.73;;
19087;SDS011;9676;50.916;13.352;2023-05-10T04:46:48;10.50;;;9.57;;
19087;SDS011;9676;50.916;13.352;2023-05-10T04:49:37;10.43;;;9.53;;
19087;SDS011;9676;50.916;13.352;2023-05-10T04:52:26;10.40;;;9.30;;
19087;SDS011;9676;50.916;13.352;2023-05-10T04:55:16;10.07;;;9.20;;
19087;SDS011;9676;50.916;13.352;2023-05-10T04:58:07;9.97;;;9.10;;
19087;SDS011;9676;50.916;13.352;2023-05-10T05:00:56;10.70;;;9.60;;
19087;SDS011;9676;50.916;13.352;2023-05-10T05:03:45;10.60;;;9.50;;
19087;SDS011;9676;50.916;13.352;2023-05-10T05:06:35;10.20;;;9.30;;
19087;SDS011;9676;50.916;13.352;2023-05-10T05:09:24;10.30;;;9.40;;
19087;SDS011;9676;50.916;13.352;2023-05-10T05:12:14;9.90;;;9.00;;
19087;SDS011;9676;50.916;13.352;2023-05-10T05:15:06;10.47;;;9.47;;
19087;SDS011;9676;50.916;13.352;2023-05-10T05:17:56;9.70;;;8.90;;
19087;SDS011;9676;50.916;13.352;2023-05-10T05:20:46;9.80;;;8.90;;
19087;SDS011;9676;50.916;13.352;2023-05-10T05:23:35;10.00;;;9.00;;
19087;SDS011;9676;50.916;13.352;2023-05-10T05:26:25;10.00;;;9.10;;
19087;SDS011;9676;50.916;13.352;2023-05-10T05:29:15;10.00;;;9.10;;
19087;SDS011;9676;50.916;13.352;2023-05-10T05:32:06;9.80;;;8.90;;
19087;SDS011;9676;50.916;13.352;2023-05-10T05:34:55;9.90;;;9.00;;
19087;SDS011;9676;50.916;13.352;2023-05-10T05:37:45;10.33;;;9.37;;
19087;SDS011;9676;50.916;13.352;2023-05-10T05:40:34;10.23;;;9.20;;
19087;SDS011;9676;50.916;13.352;2023-05-10T05:43:24;10.00;;;9.03;;
19087;SDS011;9676;50.916;13.352;2023-05-10T05:46:13;10.10;;;9.20;;
19087;SDS011;9676;50.916;13.352;2023-05-10T05:49:04;9.93;;;9.03;;
19087;SDS011;9676;50.916;13.352;2023-05-10T05:51:53;9.80;;;8.90;;
19087;SDS011;9676;50.916;13.352;2023-05-10T05:54:42;10.20;;;9.23;;
19087;SDS011;9676;50.916;13.352;2023-05-10T05:57:32;10.10;;;9.20;;
19087;SDS011;9676;50.916;13.352;2023-05-10T06:00:21;9.83;;;8.93;;
19087;SDS011;9676;50.916;13.352;2023-05-10T06:03:11;10.23;;;9.00;;
19087;SDS011;9676;50.916;13.352;2023-05-10T06:06:02;9.87;;;8.97;;
19087;SDS011;9676;50.916;13.352;2023-05-10T06:08:51;9.70;;;8.80;;
19087;SDS011;9676;50.916;13.352;2023-05-10T06:11:41;14.23;;;9.20;;
19087;SDS011;9676;50.916;13.352;2023-05-10T06:14:30;9.90;;;8.90;;
19087;SDS011;9676;50.916;13.352;2023-05-10T06:17:19;9.60;;;8.70;;
19087;SDS011;9676;50.916;13.352;2023-05-10T06:20:09;9.50;;;8.50;;
19087;SDS011;9676;50.916;13.352;2023-05-10T06:23:02;9.97;;;8.90;;
19087;SDS011;9676;50.916;13.352;2023-05-10T06:25:51;13.13;;;8.70;;
19087;SDS011;9676;50.916;13.352;2023-05-10T06:28:40;10.00;;;9.00;;
19087;SDS011;9676;50.916;13.352;2023-05-10T06:31:30;9.40;;;8.60;;
19087;SDS011;9676;50.916;13.352;2023-05-10T06:34:19;9.40;;;8.50;;
19087;SDS011;9676;50.916;13.352;2023-05-10T06:37:08;10.00;;;9.00;;
19087;SDS011;9676;50.916;13.352;2023-05-10T06:39:59;13.30;;;9.30;;
19087;SDS011;9676;50.916;13.352;2023-05-10T06:42:49;10.13;;;9.13;;
19087;SDS011;9676;50.916;13.352;2023-05-10T06:45:38;9.70;;;8.80;;
19087;SDS011;9676;50.916;13.352;2023-05-10T06:48:28;9.57;;;8.67;;
19087;SDS011;9676;50.916;13.352;2023-05-10T06:51:17;9.80;;;8.80;;
19087;SDS011;9676;50.916;13.352;2023-05-10T06:54:08;10.07;;;8.77;;
19087;SDS011;9676;50.916;13.352;2023-05-10T06:56:59;9.77;;;8.80;;
19087;SDS011;9676;50.916;13.352;2023-05-10T06:59:53;10.47;;;8.90;;
19087;SDS011;9676;50.916;13.352;2023-05-10T07:02:43;12.97;;;8.93;;
19087;SDS011;9676;50.916;13.352;2023-05-10T07:05:33;9.23;;;8.43;;
19087;SDS011;9676;50.916;13.352;2023-05-10T07:08:22;9.03;;;8.27;;
19087;SDS011;9676;50.916;13.352;2023-05-10T07:11:12;9.10;;;8.20;;
19087;SDS011;9676;50.916;13.352;2023-05-10T07:14:02;9.10;;;8.30;;
19087;SDS011;9676;50.916;13.352;2023-05-10T07:16:52;9.30;;;8.50;;
19087;SDS011;9676;50.916;13.352;2023-05-10T07:19:41;9.30;;;8.50;;
19087;SDS011;9676;50.916;13.352;2023-05-10T07:22:31;9.40;;;8.50;;
19087;SDS011;9676;50.916;13.352;2023-05-10T07:25:20;9.50;;;8.70;;
19087;SDS011;9676;50.916;13.352;2023-05-10T07:28:10;9.47;;;8.57;;
19087;SDS011;9676;50.916;13.352;2023-05-10T07:31:00;9.20;;;8.40;;
19087;SDS011;9676;50.916;13.352;2023-05-10T07:33:50;9.67;;;8.80;;
19087;SDS011;9676;50.916;13.352;2023-05-10T07:36:39;9.40;;;8.60;;
19087;SDS011;9676;50.916;13.352;2023-05-10T07:39:29;9.70;;;8.80;;
19087;SDS011;9676;50.916;13.352;2023-05-10T07:42:21;9.10;;;8.30;;
19087;SDS011;9676;50.916;13.352;2023-05-10T07:45:10;9.60;;;8.60;;
19087;SDS011;9676;50.916;13.352;2023-05-10T07:48:01;15.67;;;8.77;;
19087;SDS011;9676;50.916;13.352;2023-05-10T07:50:51;9.27;;;8.47;;
19087;SDS011;9676;50.916;13.352;2023-05-10T07:53:40;9.10;;;8.40;;
19087;SDS011;9676;50.916;13.352;2023-05-10T07:56:30;8.90;;;8.20;;
19087;SDS011;9676;50.916;13.352;2023-05-10T07:59:20;8.87;;;8.17;;
19087;SDS011;9676;50.916;13.352;2023-05-10T08:02:09;9.17;;;8.37;;
19087;SDS011;9676;50.916;13.352;2023-05-10T08:05:00;9.50;;;8.60;;
19087;SDS011;9676;50.916;13.352;2023-05-10T08:07:50;9.47;;;8.57;;
19087;SDS011;9676;50.916;13.352;2023-05-10T08:10:39;9.30;;;8.50;;
19087;SDS011;9676;50.916;13.352;2023-05-10T08:13:28;9.20;;;8.40;;
19087;SDS011;9676;50.916;13.352;2023-05-10T08:16:18;9.17;;;8.40;;
19087;SDS011;9676;50.916;13.352;2023-05-10T08:19:08;9.40;;;8.50;;
19087;SDS011;9676;50.916;13.352;2023-05-10T08:21:59;9.23;;;8.43;;
19087;SDS011;9676;50.916;13.352;2023-05-10T08:24:48;9.53;;;8.63;;
19087;SDS011;9676;50.916;13.352;2023-05-10T08:27:38;8.98;;;8.18;;
19087;SDS011;9676;50.916;13.352;2023-05-10T08:30:28;9.50;;;8.60;;
19087;SDS011;9676;50.916;13.352;2023-05-10T08:33:17;9.23;;;8.38;;
19087;SDS011;9676;50.916;13.352;2023-05-10T08:36:07;9.35;;;8.45;;
19087;SDS011;9676;50.916;13.352;2023-05-10T08:38:58;9.00;;;8.30;;
19087;SDS011;9676;50.916;13.352;2023-05-10T08:41:47;9.55;;;8.60;;
19087;SDS011;9676;50.916;13.352;2023-05-10T08:44:39;10.70;;;8.07;;
19087;SDS011;9676;50.916;13.352;2023-05-10T08:47:29;9.23;;;8.45;;
19087;SDS011;9676;50.916;13.352;2023-05-10T08:50:19;9.20;;;8.40;;
19087;SDS011;9676;50.916;13.352;2023-05-10T08:53:10;8.98;;;8.27;;
19087;SDS011;9676;50.916;13.352;2023-05-10T08:56:03;8.82;;;8.13;;
19087;SDS011;9676;50.916;13.352;2023-05-10T08:58:53;9.02;;;8.23;;
19087;SDS011;9676;50.916;13.352;2023-05-10T09:01:43;10.73;;;8.13;;
19087;SDS011;9676;50.916;13.352;2023-05-10T09:04:36;9.45;;;8.50;;
19087;SDS011;9676;50.916;13.352;2023-05-10T09:07:26;9.13;;;8.40;;
19087;SDS011;9676;50.916;13.352;2023-05-10T09:10:16;9.15;;;8.40;;
19087;SDS011;9676;50.916;13.352;2023-05-10T09:13:07;9.75;;;8.30;;
19087;SDS011;9676;50.916;13.352;2023-05-10T09:15:58;9.32;;;8.48;;
19087;SDS011;9676;50.916;13.352;2023-05-10T09:19:07;9.27;;;8.48;;
19087;SDS011;9676;50.916;13.352;2023-05-10T09:21:57;9.60;;;8.50;;
19087;SDS011;9676;50.916;13.352;2023-05-10T09:24:47;8.85;;;8.15;;
19087;SDS011;9676;50.916;13.352;2023-05-10T09:27:37;9.20;;;8.50;;
19087;SDS011;9676;50.916;13.352;2023-05-10T09:30:30;9.18;;;8.38;;
19087;SDS011;9676;50.916;13.352;2023-05-10T09:33:19;8.88;;;8.18;;
19087;SDS011;9676;50.916;13.352;2023-05-10T09:36:09;10.00;;;9.00;;
19087;SDS011;9676;50.916;13.352;2023-05-10T09:38:59;9.50;;;8.70;;
19087;SDS011;9676;50.916;13.352;2023-05-10T09:41:48;9.60;;;8.70;;
19087;SDS011;9676;50.916;13.352;2023-05-10T09:44:37;9.25;;;8.40;;
19087;SDS011;9676;50.916;13.352;2023-05-10T09:47:29;9.25;;;8.40;;
19087;SDS011;9676;50.916;13.352;2023-05-10T09:50:22;9.00;;;8.20;;
19087;SDS011;9676;50.916;13.352;2023-05-10T09:53:14;11.23;;;8.57;;
19087;SDS011;9676;50.916;13.352;2023-05-10T09:56:04;9.20;;;8.40;;
19087;SDS011;9676;50.916;13.352;2023-05-10T09:59:01;9.27;;;8.50;;
19087;SDS011;9676;50.916;13.352;2023-05-10T10:01:51;9.20;;;8.40;;
19087;SDS011;9676;50.916;13.352;2023-05-10T10:04:42;9.37;;;8.57;;
19087;SDS011;9676;50.916;13.352;2023-05-10T10:07:32;9.10;;;8.30;;
19087;SDS011;9676;50.916;13.352;2023-05-10T10:10:22;9.20;;;8.40;;
19087;SDS011;9676;50.916;13.352;2023-05-10T10:13:13;9.27;;;8.50;;
19087;SDS011;9676;50.916;13.352;2023-05-10T10:16:02;9.10;;;8.30;;
19087;SDS011;9676;50.916;13.352;2023-05-10T10:18:53;9.17;;;8.37;;
19087;SDS011;9676;50.916;13.352;2023-05-10T10:21:44;9.07;;;8.27;;
19087;SDS011;9676;50.916;13.352;2023-05-10T10:24:33;9.10;;;8.30;;
19087;SDS011;9676;50.916;13.352;2023-05-10T10:27:23;9.97;;;8.90;;
19087;SDS011;9676;50.916;13.352;2023-05-10T10:30:23;9.53;;;8.63;;
19087;SDS011;9676;50.916;13.352;2023-05-10T10:33:28;9.90;;;8.90;;
19087;SDS011;9676;50.916;13.352;2023-05-10T10:36:28;9.20;;;8.40;;
19087;SDS011;9676;50.916;13.352;2023-05-10T10:39:19;9.53;;;8.33;;
19087;SDS011;9676;50.916;13.352;2023-05-10T10:42:09;9.40;;;8.50;;
19087;SDS011;9676;50.916;13.352;2023-05-10T10:45:10;9.10;;;8.20;;
19087;SDS011;9676;50.916;13.352;2023-05-10T10:48:20;9.17;;;8.37;;
19087;SDS011;9676;50.916;13.352;2023-05-10T10:51:11;9.40;;;8.50;;
19087;SDS011;9676;50.916;13.352;2023-05-10T10:54:08;9.43;;;8.63;;
19087;SDS011;9676;50.916;13.352;2023-05-10T10:57:12;9.37;;;8.50;;
19087;SDS011;9676;50.916;13.352;2023-05-10T11:10:07;9.50;;;8.60;;
19087;SDS011;9676;50.916;13.352;2023-05-10T11:13:00;9.43;;;8.63;;
19087;SDS011;9676;50.916;13.352;2023-05-10T11:15:50;19.43;;;8.70;;
19087;SDS011;9676;50.916;13.352;2023-05-10T11:18:40;9.77;;;8.87;;
19087;SDS011;9676;50.916;13.352;2023-05-10T11:21:31;9.77;;;8.87;;
19087;SDS011;9676;50.916;13.352;2023-05-10T11:24:22;13.60;;;9.00;;
19087;SDS011;9676;50.916;13.352;2023-05-10T11:27:15;9.60;;;8.70;;
19087;SDS011;9676;50.916;13.352;2023-05-10T11:30:07;10.50;;;8.93;;
19087;SDS011;9676;50.916;13.352;2023-05-10T11:33:00;9.77;;;8.90;;
19087;SDS011;9676;50.916;13.352;2023-05-10T11:35:49;10.00;;;9.00;;
19087;SDS011;9676;50.916;13.352;2023-05-10T11:38:39;15.73;;;9.20;;
19087;SDS011;9676;50.916;13.352;2023-05-10T11:41:28;10.20;;;9.20;;
19087;SDS011;9676;50.916;13.352;2023-05-10T11:44:19;10.00;;;9.10;;
19087;SDS011;9676;50.916;13.352;2023-05-10T11:47:10;10.07;;;9.17;;
19087;SDS011;9676;50.916;13.352;2023-05-10T11:50:01;9.90;;;8.90;;
19087;SDS011;9676;50.916;13.352;2023-05-10T11:52:51;9.67;;;8.77;;
19087;SDS011;9676;50.916;13.352;2023-05-10T11:55:41;10.17;;;9.00;;
19087;SDS011;9676;50.916;13.352;2023-05-10T11:58:30;9.70;;;8.80;;
19087;SDS011;9676;50.916;13.352;2023-05-10T12:01:21;10.20;;;9.20;;
19087;SDS011;9676;50.916;13.352;2023-05-10T12:04:12;10.53;;;9.07;;
19087;SDS011;9676;50.916;13.352;2023-05-10T12:07:02;10.00;;;9.10;;
19087;SDS011;9676;50.916;13.352;2023-05-10T12:12:58;10.10;;;9.20;;
19087;SDS011;9676;50.916;13.352;2023-05-10T12:15:47;10.70;;;9.00;;
19087;SDS011;9676;50.916;13.352;2023-05-10T12:18:36;10.30;;;9.30;;
19087;SDS011;9676;50.916;13.352;2023-05-10T12:21:30;9.93;;;8.90;;
19087;SDS011;9676;50.916;13.352;2023-05-10T12:24:19;10.23;;;9.27;;
19087;SDS011;9676;50.916;13.352;2023-05-10T12:27:09;10.10;;;9.20;;
19087;SDS011;9676;50.916;13.352;2023-05-10T12:29:59;10.60;;;9.20;;
19087;SDS011;9676;50.916;13.352;2023-05-10T12:32:49;9.70;;;8.80;;
19087;SDS011;9676;50.916;13.352;2023-05-10T12:35:45;9.63;;;8.73;;
19087;SDS011;9676;50.916;13.352;2023-05-10T12:38:39;9.90;;;9.00;;
19087;SDS011;9676;50.916;13.352;2023-05-10T12:41:30;9.87;;;8.97;;
19087;SDS011;9676;50.916;13.352;2023-05-10T12:44:20;9.80;;;8.90;;
19087;SDS011;9676;50.916;13.352;2023-05-10T12:47:09;9.70;;;8.80;;
19087;SDS011;9676;50.916;13.352;2023-05-10T12:49:59;9.70;;;8.80;;
19087;SDS011;9676;50.916;13.352;2023-05-10T12:52:50;10.20;;;9.20;;
19087;SDS011;9676;50.916;13.352;2023-05-10T12:55:41;10.47;;;9.10;;
19087;SDS011;9676;50.916;13.352;2023-05-10T12:58:30;11.90;;;8.97;;
19087;SDS011;9676;50.916;13.352;2023-05-10T13:01:22;9.83;;;8.93;;
19087;SDS011;9676;50.916;13.352;2023-05-10T13:04:12;9.50;;;8.70;;
19087;SDS011;9676;50.916;13.352;2023-05-10T13:07:01;10.03;;;9.00;;
19087;SDS011;9676;50.916;13.352;2023-05-10T13:09:51;9.37;;;8.57;;
19087;SDS011;9676;50.916;13.352;2023-05-10T13:12:41;9.37;;;8.57;;
19087;SDS011;9676;50.916;13.352;2023-05-10T13:15:31;9.30;;;8.50;;
19087;SDS011;9676;50.916;13.352;2023-05-10T13:18:20;9.33;;;8.53;;
19087;SDS011;9676;50.916;13.352;2023-05-10T13:21:10;9.03;;;8.30;;
19087;SDS011;9676;50.916;13.352;2023-05-10T13:23:59;9.30;;;8.50;;
19087;SDS011;9676;50.916;13.352;2023-05-10T13:26:49;9.20;;;8.40;;
19087;SDS011;9676;50.916;13.352;2023-05-10T13:29:39;9.30;;;8.50;;
19087;SDS011;9676;50.916;13.352;2023-05-10T13:32:31;9.17;;;8.37;;
19087;SDS011;9676;50.916;13.352;2023-05-10T13:35:21;9.40;;;8.53;;
19087;SDS011;9676;50.916;13.352;2023-05-10T13:38:11;9.40;;;8.60;;
19087;SDS011;9676;50.916;13.352;2023-05-10T13:41:01;9.73;;;8.87;;
19087;SDS011;9676;50.916;13.352;2023-05-10T13:43:51;9.43;;;8.60;;
19087;SDS011;9676;50.916;13.352;2023-05-10T13:46:41;9.40;;;8.60;;
19087;SDS011;9676;50.916;13.352;2023-05-10T13:49:31;9.27;;;8.47;;
19087;SDS011;9676;50.916;13.352;2023-05-10T13:52:21;9.67;;;8.77;;
19087;SDS011;9676;50.916;13.352;2023-05-10T13:55:10;9.40;;;8.50;;
19087;SDS011;9676;50.916;13.352;2023-05-10T13:58:17;9.77;;;8.87;;
19087;SDS011;9676;50.916;13.352;2023-05-10T14:01:06;9.60;;;8.70;;
19087;SDS011;9676;50.916;13.352;2023-05-10T14:03:57;9.37;;;8.57;;
19087;SDS011;9676;50.916;13.352;2023-05-10T14:06:46;9.17;;;8.37;;
19087;SDS011;9676;50.916;13.352;2023-05-10T14:09:36;9.47;;;8.63;;
19087;SDS011;9676;50.916;13.352;2023-05-10T14:12:25;10.53;;;8.73;;
19087;SDS011;9676;50.916;13.352;2023-05-10T14:15:15;10.20;;;9.03;;
19087;SDS011;9676;50.916;13.352;2023-05-10T14:18:05;9.70;;;8.80;;
19087;SDS011;9676;50.916;13.352;2023-05-10T14:20:55;9.97;;;9.07;;
19087;SDS011;9676;50.916;13.352;2023-05-10T14:23:45;9.73;;;8.83;;
19087;SDS011;9676;50.916;13.352;2023-05-10T14:26:34;9.80;;;8.90;;
19087;SDS011;9676;50.916;13.352;2023-05-10T14:29:23;9.70;;;8.80;;
19087;SDS011;9676;50.916;13.352;2023-05-10T14:32:13;10.00;;;9.10;;
19087;SDS011;9676;50.916;13.352;2023-05-10T14:35:03;10.63;;;9.10;;
19087;SDS011;9676;50.916;13.352;2023-05-10T14:37:58;9.90;;;9.00;;
19087;SDS011;9676;50.916;13.352;2023-05-10T14:40:47;9.53;;;8.70;;
19087;SDS011;9676;50.916;13.352;2023-05-10T14:43:37;10.10;;;9.20;;
19087;SDS011;9676;50.916;13.352;2023-05-10T14:46:26;9.87;;;8.97;;
19087;SDS011;9676;50.916;13.352;2023-05-10T14:49:17;9.83;;;8.90;;
19087;SDS011;9676;50.916;13.352;2023-05-10T14:52:06;9.60;;;8.70;;
19087;SDS011;9676;50.916;13.352;2023-05-10T14:54:57;11.83;;;9.23;;
19087;SDS011;9676;50.916;13.352;2023-05-10T14:57:48;9.50;;;8.70;;
19087;SDS011;9676;50.916;13.352;2023-05-10T15:00:37;9.67;;;8.77;;
19087;SDS011;9676;50.916;13.352;2023-05-10T15:03:27;9.90;;;8.70;;
19087;SDS011;9676;50.916;13.352;2023-05-10T15:06:22;9.77;;;8.87;;
19087;SDS011;9676;50.916;13.352;2023-05-10T15:09:12;9.77;;;8.87;;
19087;SDS011;9676;50.916;13.352;2023-05-10T15:12:04;9.83;;;8.83;;
19087;SDS011;9676;50.916;13.352;2023-05-10T15:14:56;9.50;;;8.60;;
19087;SDS011;9676;50.916;13.352;2023-05-10T15:17:45;9.60;;;8.70;;
19087;SDS011;9676;50.916;13.352;2023-05-10T15:20:34;9.50;;;8.70;;
19087;SDS011;9676;50.916;13.352;2023-05-10T15:23:24;10.10;;;9.00;;
19087;SDS011;9676;50.916;13.352;2023-05-10T15:26:13;9.90;;;8.90;;
19087;SDS011;9676;50.916;13.352;2023-05-10T15:29:04;9.70;;;8.80;;
19087;SDS011;9676;50.916;13.352;2023-05-10T15:31:54;9.90;;;9.00;;
19087;SDS011;9676;50.916;13.352;2023-05-10T15:34:43;9.70;;;8.80;;
19087;SDS011;9676;50.916;13.352;2023-05-10T15:37:33;9.80;;;8.90;;
19087;SDS011;9676;50.916;13.352;2023-05-10T15:40:22;9.77;;;8.87;;
19087;SDS011;9676;50.916;13.352;2023-05-10T15:43:12;10.13;;;9.23;;
19087;SDS011;9676;50.916;13.352;2023-05-10T15:46:03;9.80;;;8.80;;
19087;SDS011;9676;50.916;13.352;2023-05-10T15:48:53;9.90;;;9.00;;
19087;SDS011;9676;50.916;13.352;2023-05-10T15:51:43;10.13;;;9.20;;
19087;SDS011;9676;50.916;13.352;2023-05-10T15:54:32;11.73;;;9.10;;
19087;SDS011;9676;50.916;13.352;2023-05-10T15:57:22;10.07;;;9.07;;
19087;SDS011;9676;50.916;13.352;2023-05-10T16:00:12;9.70;;;8.90;;
19087;SDS011;9676;50.916;13.352;2023-05-10T16:03:04;9.87;;;8.97;;
19087;SDS011;9676;50.916;13.352;2023-05-10T16:05:53;10.33;;;9.33;;
19087;SDS011;9676;50.916;13.352;2023-05-10T16:08:42;10.30;;;9.30;;
19087;SDS011;9676;50.916;13.352;2023-05-10T16:11:32;9.90;;;8.93;;
19087;SDS011;9676;50.916;13.352;2023-05-10T16:14:21;10.10;;;9.20;;
19087;SDS011;9676;50.916;13.352;2023-05-10T16:17:11;10.10;;;9.20;;
19087;SDS011;9676;50.916;13.352;2023-05-10T16:20:03;10.10;;;9.20;;
19087;SDS011;9676;50.916;13.352;2023-05-10T16:22:54;10.40;;;9.50;;
19087;SDS011;9676;50.916;13.352;2023-05-10T16:25:43;10.50;;;9.50;;
19087;SDS011;9676;50.916;13.352;2023-05-10T16:28:34;11.57;;;9.30;;
19087;SDS011;9676;50.916;13.352;2023-05-10T16:31:23;10.07;;;9.17;;
19087;SDS011;9676;50.916;13.352;2023-05-10T16:34:13;10.23;;;9.33;;
19087;SDS011;9676;50.916;13.352;2023-05-10T16:37:04;10.20;;;9.30;;
19087;SDS011;9676;50.916;13.352;2023-05-10T16:39:53;10.80;;;9.53;;
19087;SDS011;9676;50.916;13.352;2023-05-10T16:42:43;10.60;;;9.60;;
19087;SDS011;9676;50.916;13.352;2023-05-10T16:45:33;10.10;;;9.20;;
19087;SDS011;9676;50.916;13.352;2023-05-10T16:48:22;10.80;;;9.70;;
19087;SDS011;9676;50.916;13.352;2023-05-10T16:51:12;10.10;;;9.20;;
19087;SDS011;9676;50.916;13.352;2023-05-10T16:54:03;10.70;;;9.70;;
19087;SDS011;9676;50.916;13.352;2023-05-10T16:56:52;10.57;;;9.60;;
19087;SDS011;9676;50.916;13.352;2023-05-10T16:59:41;10.07;;;9.17;;
19087;SDS011;9676;50.916;13.352;2023-05-10T17:02:31;10.07;;;9.17;;
19087;SDS011;9676;50.916;13.352;2023-05-10T17:05:20;10.60;;;9.60;;
19087;SDS011;9676;50.916;13.352;2023-05-10T17:08:10;10.00;;;9.10;;
19087;SDS011;9676;50.916;13.352;2023-05-10T17:11:01;10.30;;;9.23;;
19087;SDS011;9676;50.916;13.352;2023-05-10T17:13:51;10.13;;;9.20;;
19087;SDS011;9676;50.916;13.352;2023-05-10T17:16:40;10.10;;;9.20;;
19087;SDS011;9676;50.916;13.352;2023-05-10T17:19:30;10.50;;;9.50;;